createdAt,value
2023-02-18T00:00:48.944Z,101653.03
2023-02-18T00:04:55.643Z,101646.78
2023-02-18T00:08:57.513Z,101643.16
2023-02-18T00:13:04.813Z,101628.41
2023-02-18T00:17:09.854Z,101617.38
2023-02-18T00:21:19.001Z,101615.47
2023-02-18T00:25:20.771Z,101602.59
2023-02-18T00:29:22.207Z,101614.78
2023-02-18T00:33:23.248Z,101607.97
2023-02-18T00:37:27.601Z,101601.97
2023-02-18T00:41:35.208Z,101582.78
2023-02-18T00:45:36.782Z,101578.50
2023-02-18T00:49:39.299Z,101568.00
2023-02-18T00:53:42.667Z,101564.66
2023-02-18T00:57:49.044Z,101544.69
2023-02-18T01:02:04.939Z,101550.00
2023-02-18T01:06:09.032Z,101536.16
2023-02-18T01:10:12.991Z,101527.28
2023-02-18T01:14:16.685Z,101535.28
2023-02-18T01:18:18.660Z,101529.97
2023-02-18T01:22:22.396Z,101528.22
2023-02-18T01:26:25.766Z,101519.34
2023-02-18T01:30:28.089Z,101514.09
2023-02-18T01:34:28.924Z,101506.34
2023-02-18T01:38:32.028Z,101506.38
2023-02-18T01:42:36.655Z,101498.66
2023-02-18T01:46:37.429Z,101520.47
2023-02-18T01:50:53.916Z,101515.47
2023-02-18T01:54:56.404Z,101509.28
2023-02-18T01:59:04.120Z,101506.81
2023-02-18T02:03:06.996Z,101500.72
2023-02-18T02:07:10.186Z,101495.56
2023-02-18T02:11:19.852Z,101491.06
2023-02-18T02:15:36.362Z,101484.63
2023-02-18T02:20:01.285Z,101490.75
2023-02-18T02:24:23.422Z,101481.19
2023-02-18T02:28:38.622Z,101481.13
2023-02-18T02:33:00.451Z,101466.56
2023-02-18T02:37:06.105Z,101449.34
2023-02-18T02:41:14.942Z,101440.59
2023-02-18T02:45:27.794Z,101445.13
2023-02-18T02:49:36.078Z,101451.22
2023-02-18T02:53:43.697Z,101447.97
2023-02-18T02:57:51.240Z,101449.91
2023-02-18T03:01:59.417Z,101465.78
2023-02-18T03:06:10.528Z,101457.25
2023-02-18T03:10:20.271Z,101463.44
2023-02-18T03:14:24.799Z,101461.91
2023-02-18T03:18:27.995Z,101468.91
2023-02-18T03:22:34.479Z,101461.16
2023-02-18T03:26:42.801Z,101449.00
2023-02-18T03:31:03.373Z,101443.72
2023-02-18T03:35:42.144Z,101449.97
2023-02-18T03:45:50.890Z,101438.84
2023-02-18T03:55:00.894Z,101427.72
2023-02-18T03:59:24.771Z,101416.28
2023-02-18T04:04:02.834Z,101405.81
2023-02-18T04:08:05.742Z,101389.19
2023-02-18T04:12:08.805Z,101387.41
2023-02-18T04:16:10.508Z,101376.13
2023-02-18T04:20:19.714Z,101381.41
2023-02-18T04:24:23.836Z,101380.44
2023-02-18T04:28:25.499Z,101373.47
2023-02-18T04:32:32.494Z,101385.75
2023-02-18T04:36:43.896Z,101374.47
2023-02-18T04:40:51.796Z,101378.06
2023-02-18T04:44:56.536Z,101371.31
2023-02-18T04:49:15.098Z,101367.72
2023-02-18T04:53:22.032Z,101364.16
2023-02-18T04:57:33.284Z,101349.44
2023-02-18T05:01:34.592Z,101348.69
2023-02-18T05:05:34.772Z,101341.75
2023-02-18T05:09:43.407Z,101331.41
2023-02-18T05:13:44.253Z,101330.72
2023-02-18T05:17:47.350Z,101328.16
2023-02-18T05:21:47.582Z,101324.78
2023-02-18T05:25:54.674Z,101341.31
2023-02-18T05:29:55.830Z,101357.25
2023-02-18T05:34:11.635Z,101359.81
2023-02-18T05:38:20.463Z,101352.66
2023-02-18T05:42:47.829Z,101365.91
2023-02-18T05:47:06.414Z,101370.16
2023-02-18T05:51:13.280Z,101358.81
2023-02-18T05:55:21.192Z,101353.59
2023-02-18T05:59:29.207Z,101356.16
2023-02-18T06:03:31.177Z,101364.84
2023-02-18T06:07:33.894Z,101360.44
2023-02-18T06:11:37.584Z,101361.31
2023-02-18T06:15:42.986Z,101364.09
2023-02-18T06:19:45.545Z,101373.81
2023-02-18T06:23:49.203Z,101380.78
2023-02-18T06:27:52.968Z,101386.06
2023-02-18T06:32:06.804Z,101388.78
2023-02-18T06:36:14.827Z,101379.19
2023-02-18T06:40:24.986Z,101386.22
2023-02-18T06:44:30.742Z,101395.81
2023-02-18T06:48:43.430Z,101395.88
2023-02-18T06:52:44.624Z,101380.16
2023-02-18T06:56:45.288Z,101387.16
2023-02-18T07:00:45.757Z,101381.09
2023-02-18T07:04:51.972Z,101380.44
2023-02-18T07:09:11.920Z,101385.66
2023-02-18T07:13:21.941Z,101387.50
2023-02-18T07:17:25.640Z,101384.31
2023-02-18T07:21:32.498Z,101382.69
2023-02-18T07:25:36.123Z,101383.75
2023-02-18T07:29:49.351Z,101390.94
2023-02-18T07:34:06.403Z,101382.50
2023-02-18T07:38:27.880Z,101373.84
2023-02-18T07:42:30.412Z,101364.22
2023-02-18T07:46:34.406Z,101364.34
2023-02-18T07:50:49.375Z,101371.47
2023-02-18T07:55:01.420Z,101376.91
2023-02-18T07:59:16.198Z,101365.69
2023-02-18T08:03:45.550Z,101375.38
2023-02-18T08:08:27.633Z,101367.53
2023-02-18T08:17:23.091Z,101352.84
2023-02-18T08:21:57.199Z,101345.88
2023-02-18T08:26:48.688Z,101355.59
2023-02-18T08:31:45.388Z,101348.75
2023-02-18T08:41:12.299Z,101336.47
2023-02-18T08:45:42.951Z,101325.06
2023-02-18T08:49:56.894Z,101343.53
2023-02-18T08:54:30.210Z,101319.91
2023-02-18T08:58:54.807Z,101321.69
2023-02-18T09:03:21.464Z,101325.22
2023-02-18T09:07:28.554Z,101320.81
2023-02-18T09:12:02.680Z,101331.28
2023-02-18T09:16:27.284Z,101325.19
2023-02-18T09:21:31.016Z,101331.31
2023-02-18T09:25:53.556Z,101331.34
2023-02-18T09:30:18.296Z,101329.66
2023-02-18T09:34:35.230Z,101330.50
2023-02-18T09:38:44.837Z,101308.59
2023-02-18T09:42:47.843Z,101326.16
2023-02-18T09:47:03.021Z,101332.28
2023-02-18T09:51:14.781Z,101343.69
2023-02-18T09:55:34.405Z,101333.19
2023-02-18T09:59:52.661Z,101333.22
2023-02-18T10:04:13.185Z,101335.00
2023-02-18T10:08:21.392Z,101330.63
2023-02-18T10:12:38.832Z,101316.63
2023-02-18T10:21:12.416Z,101309.59
2023-02-18T10:25:27.858Z,101294.72
2023-02-18T10:29:36.559Z,101291.19
2023-02-18T10:33:40.544Z,101283.28
2023-02-18T10:37:50.982Z,101294.69
2023-02-18T10:42:05.034Z,101277.13
2023-02-18T10:46:30.453Z,101284.97
2023-02-18T10:50:34.170Z,101282.34
2023-02-18T10:54:50.037Z,101278.88
2023-02-18T10:59:03.209Z,101263.97
2023-02-18T11:03:27.299Z,101268.34
2023-02-18T11:07:32.285Z,101252.59
2023-02-18T11:11:38.980Z,101260.47
2023-02-18T11:15:57.158Z,101257.84
2023-02-18T11:20:16.575Z,101255.22
2023-02-18T11:24:33.686Z,101249.09
2023-02-18T11:28:53.472Z,101249.94
2023-02-18T11:33:00.845Z,101256.94
2023-02-18T11:37:24.866Z,101248.19
2023-02-18T11:41:54.792Z,101237.69
2023-02-18T11:46:12.030Z,101234.19
2023-02-18T11:50:28.439Z,101241.19
2023-02-18T11:54:36.196Z,101229.78
2023-02-18T11:58:50.816Z,101217.50
2023-02-18T12:02:57.773Z,101198.25
2023-02-18T12:07:04.451Z,101209.63
2023-02-18T12:11:21.421Z,101193.88
2023-02-18T12:15:32.871Z,101192.97
2023-02-18T12:24:21.881Z,101183.34
2023-02-18T12:28:54.715Z,101177.22
2023-02-18T12:33:23.824Z,101192.09
2023-02-18T12:37:47.820Z,101186.84
2023-02-18T12:42:13.145Z,101174.56
2023-02-18T12:46:38.756Z,101168.44
2023-02-18T12:50:52.662Z,101173.72
2023-02-18T12:55:13.634Z,101158.78
2023-02-18T12:59:26.818Z,101161.41
2023-02-18T13:04:03.251Z,101166.69
2023-02-18T13:08:30.075Z,101145.63
2023-02-18T13:12:34.178Z,101147.34
2023-02-18T13:16:45.137Z,101134.19
2023-02-18T13:20:52.611Z,101140.34
2023-02-18T13:24:54.183Z,101134.19
2023-02-18T13:29:11.782Z,101131.56
2023-02-18T13:33:24.642Z,101140.34
2023-02-18T13:37:39.622Z,101143.84
2023-02-18T13:41:45.074Z,101141.16
2023-02-18T13:46:18.118Z,101151.69
2023-02-18T13:50:30.491Z,101145.53
2023-02-18T13:54:40.732Z,101144.69
2023-02-18T13:58:48.161Z,101135.00
2023-02-18T14:03:05.923Z,101142.00
2023-02-18T14:07:34.991Z,101141.13
2023-02-18T14:11:50.768Z,101134.97
2023-02-18T14:16:27.497Z,101135.88
2023-02-18T14:20:35.828Z,101135.88
2023-02-18T14:24:54.177Z,101135.03
2023-02-18T14:29:01.217Z,101152.53
2023-02-18T14:33:09.592Z,101142.00
2023-02-18T14:37:31.842Z,101127.88
2023-02-18T14:41:54.878Z,101144.63
2023-02-18T14:46:22.132Z,101139.34
2023-02-18T14:50:26.083Z,101134.97
2023-02-18T14:54:28.897Z,101126.19
2023-02-18T14:58:40.631Z,101127.09
2023-02-18T15:02:43.987Z,101117.44
2023-02-18T15:06:44.632Z,101127.97
2023-02-18T15:10:47.191Z,101119.19
2023-02-18T15:15:00.476Z,101119.16
2023-02-18T15:19:09.196Z,101122.72
2023-02-18T15:23:15.035Z,101113.97
2023-02-18T15:27:17.234Z,101111.31
2023-02-18T15:31:18.194Z,101115.75
2023-02-18T15:35:36.459Z,101108.78
2023-02-18T15:39:43.735Z,101110.50
2023-02-18T15:43:59.120Z,101104.41
2023-02-18T15:48:04.713Z,101109.66
2023-02-18T15:52:13.921Z,101095.66
2023-02-18T15:56:32.903Z,101109.72
2023-02-18T16:01:06.592Z,101115.84
2023-02-18T16:11:14.287Z,101107.13
2023-02-18T16:15:46.229Z,101102.72
2023-02-18T16:25:01.018Z,101115.00
2023-02-18T16:29:57.789Z,101119.38
2023-02-18T16:34:35.262Z,101129.03
2023-02-18T16:44:09.816Z,101129.91
2023-02-18T16:48:41.600Z,101129.03
2023-02-18T16:53:09.211Z,101135.16
2023-02-18T16:57:22.574Z,101134.28
2023-02-18T17:01:48.281Z,101136.00
2023-02-18T17:06:08.906Z,101125.50
2023-02-18T17:10:35.152Z,101137.75
2023-02-18T17:14:44.696Z,101134.22
2023-02-18T17:18:53.647Z,101135.13
2023-02-18T17:23:14.449Z,101128.06
2023-02-18T17:27:26.402Z,101120.19
2023-02-18T17:31:29.395Z,101120.19
2023-02-18T17:35:48.641Z,101135.94
2023-02-18T17:40:05.325Z,101136.78
2023-02-18T17:44:26.699Z,101145.47
2023-02-18T17:48:35.000Z,101142.78
2023-02-18T17:52:56.122Z,101128.72
2023-02-18T17:57:27.163Z,101135.69
2023-02-18T18:01:39.746Z,101143.53
2023-02-18T18:05:45.584Z,101139.13
2023-02-18T18:09:48.662Z,101132.97
2023-02-18T18:14:07.431Z,101139.06
2023-02-18T18:18:33.333Z,101128.59
2023-02-18T18:22:47.193Z,101140.81
2023-02-18T18:26:49.375Z,101135.56
2023-02-18T18:30:50.492Z,101140.78
2023-02-18T18:40:16.930Z,101146.78
2023-02-18T18:45:45.853Z,101159.88
2023-02-18T19:00:13.898Z,101175.38
2023-02-18T19:04:22.883Z,101184.94
2023-02-18T19:08:28.175Z,101179.72
2023-02-18T19:12:37.522Z,101176.13
2023-02-18T19:16:42.877Z,101188.38
2023-02-18T19:20:44.673Z,101188.28
2023-02-18T19:25:22.041Z,101193.56
2023-02-18T19:29:41.000Z,101197.88
2023-02-18T19:33:56.098Z,101188.19
2023-02-18T19:38:13.017Z,101189.88
2023-02-18T19:42:24.315Z,101180.25
2023-02-18T19:46:26.933Z,101168.84
2023-02-18T19:50:29.180Z,101166.31
2023-02-18T19:54:37.808Z,101167.16
2023-02-18T20:03:08.487Z,101178.44
2023-02-18T20:07:34.422Z,101178.44
2023-02-18T20:11:39.057Z,101165.25
2023-02-18T20:15:51.584Z,101166.16
2023-02-18T20:20:09.423Z,101163.59
2023-02-18T20:24:30.649Z,101155.72
2023-02-18T20:29:05.863Z,101170.50
2023-02-18T20:33:16.266Z,101173.16
2023-02-18T20:37:35.959Z,101180.25
2023-02-18T20:41:43.048Z,101167.16
2023-02-18T20:46:00.486Z,101174.97
2023-02-18T20:50:11.378Z,101182.69
2023-02-18T20:54:22.659Z,101181.00
2023-02-18T20:58:26.884Z,101160.00
2023-02-18T21:02:31.679Z,101153.91
2023-02-18T21:06:36.777Z,101144.34
2023-02-18T21:10:42.764Z,101148.81
2023-02-18T21:14:51.882Z,101152.41
2023-02-18T21:18:52.928Z,101146.41
2023-02-18T21:23:02.604Z,101133.38
2023-02-18T21:27:09.466Z,101132.53
2023-02-18T21:31:19.077Z,101141.38
2023-02-18T21:35:24.576Z,101140.56
2023-02-18T21:39:32.489Z,101134.50
2023-02-18T21:43:35.505Z,101128.34
2023-02-18T21:47:45.340Z,101125.69
2023-02-18T21:52:08.849Z,101126.53
2023-02-18T21:56:14.582Z,101124.84
2023-02-18T22:00:34.113Z,101122.22
2023-02-18T22:04:40.038Z,101115.16
2023-02-18T22:08:53.068Z,101112.47
2023-02-18T22:12:54.533Z,101117.69
2023-02-18T22:17:02.549Z,101122.94
2023-02-18T22:21:10.097Z,101113.34
2023-02-18T22:25:11.507Z,101109.78
2023-02-18T22:29:13.990Z,101100.13
2023-02-18T22:33:20.068Z,101111.44
2023-02-18T22:37:22.031Z,101105.38
2023-02-18T22:41:28.000Z,101093.09
2023-02-18T22:45:29.495Z,101098.25
2023-02-18T22:49:50.989Z,101093.81
2023-02-18T22:53:51.630Z,101099.03
2023-02-18T22:57:52.582Z,101099.03
2023-02-18T23:01:53.427Z,101100.78
2023-02-18T23:05:57.242Z,101085.13
2023-02-18T23:09:57.884Z,101078.16
2023-02-18T23:14:14.504Z,101072.88
2023-02-18T23:18:16.378Z,101055.44
2023-02-18T23:22:19.381Z,101070.31
2023-02-18T23:26:24.316Z,101064.25
2023-02-18T23:30:28.231Z,101056.44
2023-02-18T23:34:29.076Z,101057.44
2023-02-18T23:38:41.352Z,101052.25
2023-02-18T23:42:43.105Z,101043.56
2023-02-18T23:46:45.759Z,101041.88
2023-02-18T23:50:55.814Z,101036.69
2023-02-18T23:55:06.541Z,101030.56
2023-02-18T23:59:09.282Z,101021.88
